This is the latest recevied weather packets stored in our database for station/object KJ7HSW. If no packets are shown the sender has not sent any weather packets the latest 10 day(s).
| Time | Temp. | Humidity | Pressure | Rain* | Wind** | Luminosity | Snow |
|---|---|---|---|---|---|---|---|
| 1777593073 | 23.89° C | 43% | 1017.2 hPa | 0 mm | - | 190 W/m² | - |
| 1777592772 | 23.89° C | 41% | 1017.3 hPa | 0 mm | - | 239 W/m² | - |
| 1777592469 | 24.44° C | 44% | 1017.2 hPa | 0 mm | - | 203 W/m² | - |
| 1777592164 | 24.44° C | 42% | 1017.3 hPa | 0 mm | - | 263 W/m² | - |
| 1777591861 | 24.44° C | 41% | 1017.2 hPa | 0 mm | - | 375 W/m² | - |
| 1777591557 | 25° C | 40% | 1017.5 hPa | 0 mm | - | 426 W/m² | - |
| 1777591253 | 24.44° C | 41% | 1017.6 hPa | 0 mm | - | 471 W/m² | - |
| 1777590949 | 24.44° C | 41% | 1017.5 hPa | 0 mm | - | 499 W/m² | - |
| 1777590644 | 24.44° C | 40% | 1017.6 hPa | 0 mm | - | 341 W/m² | - |
| 1777590341 | 24.44° C | 40% | 1017.8 hPa | 0 mm | - | 391 W/m² | - |
| 1777590038 | 24.44° C | 41% | 1017.9 hPa | 0 mm | - | 427 W/m² | - |
| 1777589735 | 24.44° C | 41% | 1017.7 hPa | 0 mm | - | 556 W/m² | - |
| 1777589433 | 25° C | 39% | 1018 hPa | 0 mm | - | 369 W/m² | - |
| 1777589129 | 24.44° C | 41% | 1017.8 hPa | 0 mm | - | 592 W/m² | - |
| 1777588825 | 25° C | 39% | 1018 hPa | 0 mm | - | 631 W/m² | - |
| 1777588521 | 24.44° C | 43% | 1018.1 hPa | 0 mm | - | 683 W/m² | - |
| 1777588217 | 24.44° C | 44% | 1018.1 hPa | 0 mm | - | 654 W/m² | - |
| 1777587912 | 24.44° C | 43% | 1018.1 hPa | 0 mm | - | 611 W/m² | - |
| 1777587608 | 24.44° C | 40% | 1018.2 hPa | 0 mm | - | 662 W/m² | - |
| 1777587303 | 24.44° C | 39% | 1018.1 hPa | 0 mm | - | 678 W/m² | - |
| 1777586999 | 24.44° C | 42% | 1018.2 hPa | 0 mm | - | 625 W/m² | - |
| 1777586694 | 24.44° C | 40% | 1018.4 hPa | 0 mm | - | 608 W/m² | - |
| 1777586390 | 24.44° C | 39% | 1018.3 hPa | 0 mm | - | 691 W/m² | - |
| 1777586090 | 24.44° C | 42% | 1018.5 hPa | 0 mm | - | 511 W/m² | - |
| 1777585788 | 24.44° C | 39% | 1018.4 hPa | 0 mm | - | 694 W/m² | - |
* Rain latest hour (hover to see other rain measurements)
** Current wind speed in m/s (hover to see current wind gust speed)